Terminal Aerodrome Forecast
Issued by NWS

Home | Current Version | Previous Version | Text Only | Print | Product List | Glossary On
Versions: 1 2 3 4 5 6 7 8 9 10 11 12 13
000
FTUS44 KTSA 041700
TAFMLC
TAF
KMLC 041723Z 0418/0518 19010G17KT P6SM FEW100
     FM050100 15005KT P6SM BKN250
     FM050300 VRB03KT P6SM BKN250 WS020/17035KT
     FM051500 17011G20KT P6SM SCT100 BKN250=

USA.gov is the U.S. government's official web portal to all federal, state and local government web resources and services.